Grand Prairie, Texas
Current Conditions -  °F | °C
As of 10:15 PM on Thursday 27 Nov 2014 (Local Time) from KGPM Reporting Station
Clear Clear  
Wind Chill: 47°   Ceiling: Unl
Heat Index: 47°   Visibility: 10mi
Dew Point: 33°   Wind: 3mph
Humidity: 57%   Direction: 180°S
Pressure: 30.38"   Gusts: NA
Location:  32.75°N, 97.01°W
Report Text: KGPM 280415Z AUTO 18003KT 10SM CLR 09/01 A3038 RMK AO2 T00850005
Loading
Personal Weather Stations






























Interactive Weather Map New forecast layout! Learn more

10-Day Weather Forecast

Advertisements
Track Severe Weather on mobile